Time;durP1;ratioP1;P1;durP2;ratioP2;P2;SDS_P1;SDS_P2;PMS_P1;PMS_P2;Temp;Humidity;BMP_temperature;BMP_pressure;BME280_temperature;BME280_humidity;BME280_pressure;Samples;Min_cycle;Max_cycle;Signal;HPM_P1;HPM_P2
2021/03/19 00:03:03;;;;;;;97.50;29.60;;;;;;;;;;8259911;28;20415;-67
2021/03/19 00:07:07;;;;;;;108.38;32.83;;;;;;;;;;8258969;28;20061;-67
2021/03/19 00:11:12;;;;;;;107.63;32.45;;;;;;;;;;8259300;28;20476;-66
2021/03/19 00:15:20;;;;;;;101.90;32.55;;;;;;;;;;8259974;28;20403;-68
2021/03/19 00:19:31;;;;;;;92.10;32.42;;;;;;;;;;8260072;28;20372;-67
2021/03/19 00:23:36;;;;;;;100.18;33.80;;;;;;;;;;8258632;28;20361;-67
2021/03/19 00:27:41;;;;;;;108.38;32.33;;;;;;;;;;8257368;28;20379;-66
2021/03/19 00:31:46;;;;;;;120.97;38.92;;;;;;;;;;8259190;28;20476;-66
2021/03/19 00:35:50;;;;;;;104.25;35.67;;;;;;;;;;8257290;28;20382;-66
2021/03/19 00:39:54;;;;;;;109.53;35.17;;;;;;;;;;8256839;28;20045;-67
2021/03/19 00:43:58;;;;;;;121.22;34.15;;;;;;;;;;8257087;28;20380;-66
2021/03/19 00:48:03;;;;;;;106.90;34.92;;;;;;;;;;8258808;28;20360;-67
2021/03/19 00:52:24;;;;;;;106.28;35.08;;;;;;;;;;8259815;28;20048;-66
2021/03/19 00:56:29;;;;;;;109.72;37.80;;;;;;;;;;8257173;28;20388;-66
2021/03/19 01:00:36;;;;;;;122.75;37.60;;;;;;;;;;8256835;28;20463;-66
2021/03/19 01:04:40;;;;;;;117.95;39.15;;;;;;;;;;8243920;28;20452;-67
2021/03/19 01:08:45;;;;;;;121.85;38.42;;;;;;;;;;8256858;28;20080;-66
2021/03/19 01:12:49;;;;;;;134.82;39.30;;;;;;;;;;8257715;28;20045;-66
2021/03/19 01:16:54;;;;;;;118.43;37.97;;;;;;;;;;8257673;28;20041;-66
2021/03/19 01:20:58;;;;;;;123.75;41.50;;;;;;;;;;8257989;28;20067;-66
2021/03/19 01:25:07;;;;;;;113.43;37.78;;;;;;;;;;8257258;28;20463;-66
2021/03/19 01:29:12;;;;;;;109.05;38.13;;;;;;;;;;8257095;28;20383;-67
2021/03/19 01:33:17;;;;;;;118.18;39.75;;;;;;;;;;8256888;28;20498;-68
2021/03/19 01:37:22;;;;;;;127.75;41.95;;;;;;;;;;8256689;28;20057;-66
2021/03/19 01:41:26;;;;;;;124.57;43.40;;;;;;;;;;8256300;28;20371;-66
2021/03/19 01:46:20;;;;;;;145.82;40.42;;;;;;;;;;8257453;28;20063;-67
2021/03/19 01:51:21;;;;;;;130.30;41.03;;;;;;;;;;8258892;28;20114;-66
2021/03/19 01:56:22;;;;;;;124.50;38.83;;;;;;;;;;8256795;28;20378;-67
2021/03/19 02:01:23;;;;;;;116.80;37.03;;;;;;;;;;8257489;28;20398;-66
2021/03/19 02:06:27;;;;;;;115.30;37.95;;;;;;;;;;8257671;28;20370;-67
2021/03/19 02:11:28;;;;;;;110.15;39.25;;;;;;;;;;8255854;28;20468;-65
2021/03/19 02:16:28;;;;;;;119.05;38.33;;;;;;;;;;8258256;28;20049;-66
2021/03/19 02:21:30;;;;;;;121.93;38.30;;;;;;;;;;8256051;28;20072;-66
2021/03/19 02:26:31;;;;;;;118.70;38.55;;;;;;;;;;8258620;28;20061;-66
2021/03/19 02:31:09;;;;;;;116.38;36.47;;;;;;;;;;8262458;28;20451;-66
2021/03/19 02:35:22;;;;;;;119.35;38.78;;;;;;;;;;8265277;28;20049;-65
2021/03/19 02:39:26;;;;;;;123.60;36.97;;;;;;;;;;8278316;28;20406;-67
2021/03/19 02:43:31;;;;;;;118.72;35.60;;;;;;;;;;8261838;28;20487;-66
2021/03/19 02:47:36;;;;;;;128.98;37.63;;;;;;;;;;8263183;28;20083;-66
2021/03/19 02:51:41;;;;;;;109.13;36.55;;;;;;;;;;8264738;28;20460;-67
2021/03/19 02:55:45;;;;;;;117.80;36.42;;;;;;;;;;8261311;28;20486;-66
2021/03/19 02:59:50;;;;;;;103.65;35.55;;;;;;;;;;8261165;28;20376;-67
2021/03/19 03:03:54;;;;;;;116.65;35.25;;;;;;;;;;8261525;28;20367;-69
2021/03/19 03:07:58;;;;;;;113.97;38.80;;;;;;;;;;8261864;28;20460;-68
2021/03/19 03:12:04;;;;;;;119.25;36.90;;;;;;;;;;8261723;28;20506;-66
2021/03/19 03:16:08;;;;;;;134.68;40.45;;;;;;;;;;8261069;28;20444;-66
2021/03/19 03:20:21;;;;;;;109.22;37.58;;;;;;;;;;8258807;28;20480;-66
2021/03/19 03:24:28;;;;;;;120.70;36.42;;;;;;;;;;8260738;28;20053;-67
2021/03/19 03:28:32;;;;;;;111.00;34.38;;;;;;;;;;8261164;28;20359;-65
2021/03/19 03:32:37;;;;;;;99.47;33.95;;;;;;;;;;8260725;28;20057;-66
2021/03/19 03:36:43;;;;;;;114.55;34.72;;;;;;;;;;8260951;28;20344;-66
2021/03/19 03:41:00;;;;;;;112.47;34.55;;;;;;;;;;8259805;28;20463;-67
2021/03/19 03:45:07;;;;;;;114.53;35.67;;;;;;;;;;8261320;28;20056;-66
2021/03/19 03:49:18;;;;;;;133.97;37.50;;;;;;;;;;8259264;28;20459;-66
2021/03/19 03:53:23;;;;;;;108.03;35.88;;;;;;;;;;8259766;28;20367;-66
2021/03/19 03:57:28;;;;;;;78.57;29.73;;;;;;;;;;8258693;28;20410;-66
2021/03/19 04:01:36;;;;;;;100.88;34.58;;;;;;;;;;8258670;28;20352;-65
2021/03/19 04:05:46;;;;;;;105.68;34.45;;;;;;;;;;8260289;28;20388;-66
2021/03/19 04:09:51;;;;;;;112.40;37.53;;;;;;;;;;8260608;28;20452;-66
2021/03/19 04:13:56;;;;;;;100.47;33.03;;;;;;;;;;8259251;28;20406;-67
2021/03/19 04:18:06;;;;;;;110.35;36.72;;;;;;;;;;8258814;28;20359;-67
2021/03/19 04:22:10;;;;;;;119.63;37.03;;;;;;;;;;8260489;28;20045;-67
2021/03/19 04:26:31;;;;;;;110.25;35.90;;;;;;;;;;8259917;28;20045;-66
2021/03/19 04:30:41;;;;;;;116.03;39.58;;;;;;;;;;8256688;28;20455;-65
2021/03/19 04:34:45;;;;;;;125.97;42.22;;;;;;;;;;8258333;28;20057;-66
2021/03/19 04:38:52;;;;;;;129.88;43.10;;;;;;;;;;8258299;28;20067;-66
2021/03/19 04:42:58;;;;;;;128.48;44.70;;;;;;;;;;8256805;28;20365;-66
2021/03/19 04:47:04;;;;;;;137.35;45.63;;;;;;;;;;8257516;28;20508;-65
2021/03/19 04:51:10;;;;;;;135.68;43.58;;;;;;;;;;8258971;28;20380;-65
2021/03/19 04:55:26;;;;;;;183.82;58.15;;;;;;;;;;8258736;28;20341;-65
2021/03/19 04:59:33;;;;;;;184.85;63.38;;;;;;;;;;8256297;28;20502;-65
2021/03/19 05:03:36;;;;;;;162.23;49.05;;;;;;;;;;8257713;28;20045;-66
2021/03/19 05:07:41;;;;;;;131.55;44.03;;;;;;;;;;8258284;28;20356;-65
2021/03/19 05:11:46;;;;;;;135.45;42.65;;;;;;;;;;8256953;28;20460;-65
2021/03/19 05:15:51;;;;;;;131.55;42.45;;;;;;;;;;8260027;28;20395;-68
2021/03/19 05:19:56;;;;;;;119.22;40.22;;;;;;;;;;8255725;28;20468;-66
2021/03/19 05:24:01;;;;;;;130.73;44.17;;;;;;;;;;8258114;28;20041;-66
2021/03/19 05:28:06;;;;;;;127.10;43.13;;;;;;;;;;8259760;28;20489;-66
2021/03/19 05:32:11;;;;;;;139.75;43.33;;;;;;;;;;8258421;28;20088;-66
2021/03/19 05:36:21;;;;;;;145.50;47.50;;;;;;;;;;8257746;28;20367;-66
2021/03/19 05:40:43;;;;;;;145.65;47.30;;;;;;;;;;8257211;28;20063;-65
2021/03/19 05:44:55;;;;;;;157.45;48.53;;;;;;;;;;8256752;28;20049;-66
2021/03/19 05:49:07;;;;;;;137.20;45.47;;;;;;;;;;8256960;28;20068;-66
2021/03/19 05:53:18;;;;;;;124.80;42.13;;;;;;;;;;8257561;28;20041;-66
2021/03/19 05:57:33;;;;;;;141.73;44.28;;;;;;;;;;8258120;28;20057;-66
2021/03/19 06:01:39;;;;;;;125.75;44.72;;;;;;;;;;8259659;28;20475;-65
2021/03/19 06:06:09;;;;;;;127.50;45.28;;;;;;;;;;8262981;28;20349;-66
2021/03/19 06:10:29;;;;;;;162.57;52.88;;;;;;;;;;8261697;28;20368;-68
2021/03/19 06:14:50;;;;;;;153.85;53.60;;;;;;;;;;8261958;28;20456;-66
2021/03/19 06:18:58;;;;;;;145.07;48.88;;;;;;;;;;8261916;28;20505;-66
2021/03/19 06:23:17;;;;;;;149.80;52.15;;;;;;;;;;8263435;28;20349;-66
2021/03/19 06:27:48;;;;;;;140.63;47.30;;;;;;;;;;8262208;28;20597;-66
2021/03/19 06:32:20;;;;;;;134.75;47.40;;;;;;;;;;8262622;28;20475;-67
2021/03/19 06:36:26;;;;;;;132.40;48.03;;;;;;;;;;8262335;28;20071;-66
2021/03/19 06:40:39;;;;;;;128.05;47.47;;;;;;;;;;8261891;28;20360;-68
2021/03/19 06:44:43;;;;;;;186.73;73.00;;;;;;;;;;8262828;28;20045;-66
2021/03/19 06:49:04;;;;;;;139.52;51.92;;;;;;;;;;8259523;28;20351;-67
2021/03/19 06:53:25;;;;;;;162.02;62.83;;;;;;;;;;8262289;28;20464;-66
2021/03/19 06:57:50;;;;;;;167.27;55.42;;;;;;;;;;8261400;28;20057;-66
2021/03/19 07:01:58;;;;;;;155.18;57.15;;;;;;;;;;8263019;28;20436;-69
2021/03/19 07:06:49;;;;;;;432.35;200.80;;;;;;;;;;8263560;28;20481;-68
2021/03/19 07:11:01;;;;;;;434.55;197.25;;;;;;;;;;8263250;28;20490;-67
2021/03/19 07:15:43;;;;;;;326.98;133.70;;;;;;;;;;8262207;28;20071;-68
2021/03/19 07:20:55;;;;;;;191.60;79.05;;;;;;;;;;8258598;28;20383;-67
2021/03/19 07:25:48;;;;;;;247.55;85.35;;;;;;;;;;8258481;28;20460;-68
2021/03/19 07:30:59;;;;;;;214.95;79.53;;;;;;;;;;8260029;28;20394;-68
2021/03/19 07:35:43;;;;;;;297.92;102.93;;;;;;;;;;8250019;28;20512;-67
2021/03/19 07:40:50;;;;;;;210.65;71.82;;;;;;;;;;8251163;28;20355;-68
2021/03/19 07:45:10;;;;;;;151.50;54.85;;;;;;;;;;8255233;28;20479;-69
2021/03/19 07:50:07;;;;;;;175.77;67.72;;;;;;;;;;8258920;28;20468;-68
2021/03/19 07:54:23;;;;;;;164.77;63.10;;;;;;;;;;8262642;28;20356;-68
2021/03/19 07:59:13;;;;;;;167.80;59.80;;;;;;;;;;8258846;28;20487;-68
2021/03/19 08:03:27;;;;;;;124.72;49.00;;;;;;;;;;8259806;28;20463;-69
2021/03/19 08:07:45;;;;;;;106.15;38.80;;;;;;;;;;8259783;28;20048;-69
2021/03/19 08:12:02;;;;;;;91.05;36.15;;;;;;;;;;8258236;28;20448;-71
2021/03/19 08:16:29;;;;;;;103.28;39.63;;;;;;;;;;8257976;28;20468;-69
2021/03/19 08:21:12;;;;;;;73.55;31.05;;;;;;;;;;8258219;28;20037;-70
2021/03/19 08:25:27;;;;;;;55.50;25.45;;;;;;;;;;8259245;28;20075;-71
2021/03/19 08:30:05;;;;;;;42.90;22.85;;;;;;;;;;8258213;28;20379;-71
2021/03/19 08:34:43;;;;;;;48.00;22.33;;;;;;;;;;8258219;28;20367;-72
2021/03/19 08:38:56;;;;;;;19.20;10.20;;;;;;;;;;8234381;28;20467;-71
2021/03/19 08:43:01;;;;;;;31.90;15.45;;;;;;;;;;8256630;28;20414;-69
2021/03/19 08:47:55;;;;;;;33.45;17.25;;;;;;;;;;8258142;28;20472;-70
2021/03/19 08:52:25;;;;;;;40.08;18.45;;;;;;;;;;8230900;28;20476;-70
2021/03/19 08:56:32;;;;;;;34.78;17.27;;;;;;;;;;8257606;28;20472;-69
2021/03/19 09:00:41;;;;;;;42.17;19.27;;;;;;;;;;8257240;28;20444;-69
2021/03/19 09:04:50;;;;;;;37.97;19.50;;;;;;;;;;8256181;28;20361;-70
2021/03/19 09:08:56;;;;;;;44.88;19.73;;;;;;;;;;8256948;28;20258;-69
2021/03/19 09:13:07;;;;;;;44.13;21.80;;;;;;;;;;8239874;28;20376;-71
2021/03/19 09:18:08;;;;;;;43.50;18.42;;;;;;;;;;8257004;28;20040;-70
2021/03/19 09:22:25;;;;;;;22.70;11.50;;;;;;;;;;8255558;28;20079;-70
2021/03/19 09:26:36;;;;;;;22.35;12.32;;;;;;;;;;8255222;28;20075;-71
2021/03/19 09:30:48;;;;;;;19.30;10.13;;;;;;;;;;8224061;28;20383;-70
2021/03/19 09:34:52;;;;;;;26.50;13.52;;;;;;;;;;8256073;28;20438;-70
2021/03/19 09:38:57;;;;;;;40.28;18.65;;;;;;;;;;8262693;28;20686;-70
2021/03/19 09:43:00;;;;;;;36.03;17.60;;;;;;;;;;8264377;28;20388;-71
2021/03/19 09:47:04;;;;;;;40.05;20.75;;;;;;;;;;8265243;28;20048;-70
2021/03/19 09:51:31;;;;;;;25.80;12.45;;;;;;;;;;8264125;28;20068;-70
2021/03/19 09:55:47;;;;;;;25.50;15.07;;;;;;;;;;8261499;28;20501;-70
2021/03/19 10:00:16;;;;;;;11.35;6.53;;;;;;;;;;8260712;28;20053;-70
2021/03/19 10:04:39;;;;;;;484.02;148.68;;;;;;;;;;8262407;28;20067;-70
2021/03/19 10:08:43;;;;;;;79.03;34.78;;;;;;;;;;8262549;28;20364;-72
2021/03/19 10:12:48;;;;;;;42.85;17.92;;;;;;;;;;8262492;28;20056;-70
2021/03/19 10:17:04;;;;;;;175.63;48.28;;;;;;;;;;8261141;28;20419;-70
2021/03/19 10:21:22;;;;;;;83.65;29.15;;;;;;;;;;8261236;28;20391;-70
2021/03/19 10:25:35;;;;;;;133.10;42.70;;;;;;;;;;8263135;28;20382;-70
2021/03/19 10:29:52;;;;;;;28.60;12.55;;;;;;;;;;8263434;28;20436;-72
2021/03/19 10:34:18;;;;;;;23.00;11.63;;;;;;;;;;8260875;28;20463;-70
2021/03/19 10:38:56;;;;;;;38.72;18.42;;;;;;;;;;8259543;28;20491;-70
2021/03/19 10:43:19;;;;;;;26.15;13.10;;;;;;;;;;8260353;28;20375;-72
2021/03/19 10:48:12;;;;;;;27.33;14.45;;;;;;;;;;8261759;28;20379;-70
2021/03/19 10:52:38;;;;;;;31.15;17.52;;;;;;;;;;8235560;28;20333;-70
2021/03/19 10:56:52;;;;;;;23.48;12.73;;;;;;;;;;8260872;28;20499;-71
2021/03/19 11:00:57;;;;;;;16.95;9.65;;;;;;;;;;8261110;28;20100;-70
2021/03/19 11:05:12;;;;;;;15.55;8.52;;;;;;;;;;8262079;28;20049;-71
2021/03/19 11:09:26;;;;;;;11.63;6.55;;;;;;;;;;8261608;28;20471;-71
2021/03/19 11:13:38;;;;;;;10.15;5.85;;;;;;;;;;8260085;28;20398;-71
2021/03/19 11:17:42;;;;;;;9.93;5.20;;;;;;;;;;8260900;28;20114;-71
2021/03/19 11:22:07;;;;;;;12.13;5.78;;;;;;;;;;8261506;28;20049;-72
2021/03/19 11:26:33;;;;;;;10.23;4.65;;;;;;;;;;8259274;28;20075;-70
2021/03/19 11:30:38;;;;;;;9.88;5.28;;;;;;;;;;8261244;28;20371;-72
2021/03/19 11:34:55;;;;;;;12.43;6.22;;;;;;;;;;8259202;28;20493;-71
2021/03/19 11:39:16;;;;;;;26.57;12.80;;;;;;;;;;8259839;28;20494;-71
2021/03/19 11:43:20;;;;;;;35.20;16.15;;;;;;;;;;8260888;28;20586;-71
2021/03/19 11:47:32;;;;;;;55.92;25.50;;;;;;;;;;8262651;28;20075;-70
2021/03/19 11:51:39;;;;;;;33.60;14.45;;;;;;;;;;8258913;28;20483;-70
2021/03/19 11:55:46;;;;;;;19.45;9.07;;;;;;;;;;8259254;28;20064;-70
2021/03/19 11:59:50;;;;;;;12.07;6.00;;;;;;;;;;8257397;28;20375;-71
2021/03/19 12:03:55;;;;;;;14.35;6.65;;;;;;;;;;8260384;28;20384;-70
2021/03/19 12:08:01;;;;;;;30.35;14.07;;;;;;;;;;8258654;28;20425;-70
2021/03/19 12:12:14;;;;;;;37.60;16.83;;;;;;;;;;8261011;28;20052;-70
2021/03/19 12:16:19;;;;;;;19.15;9.02;;;;;;;;;;8257445;28;20041;-70
2021/03/19 12:20:24;;;;;;;11.10;6.13;;;;;;;;;;8258685;28;20372;-70
2021/03/19 12:24:27;;;;;;;13.75;7.63;;;;;;;;;;8261535;28;20355;-71
2021/03/19 12:28:32;;;;;;;9.10;5.57;;;;;;;;;;8262030;28;20411;-70
2021/03/19 12:32:38;;;;;;;17.20;9.10;;;;;;;;;;8258550;28;20455;-71
2021/03/19 12:36:44;;;;;;;11.73;7.03;;;;;;;;;;8259847;28;20075;-70
2021/03/19 12:40:49;;;;;;;11.80;6.93;;;;;;;;;;8257722;28;20364;-70
2021/03/19 12:44:53;;;;;;;10.85;5.85;;;;;;;;;;8259985;28;20072;-70
2021/03/19 12:48:58;;;;;;;11.77;6.70;;;;;;;;;;8258426;28;20376;-70
2021/03/19 12:53:05;;;;;;;17.35;8.00;;;;;;;;;;8255636;28;20475;-71
2021/03/19 12:57:09;;;;;;;27.73;13.25;;;;;;;;;;8239737;28;20459;-71
2021/03/19 13:01:19;;;;;;;77.15;26.63;;;;;;;;;;8258201;28;20467;-70
2021/03/19 13:05:28;;;;;;;28.42;18.77;;;;;;;;;;8257830;28;20387;-70
2021/03/19 13:09:32;;;;;;;31.75;19.73;;;;;;;;;;8258235;28;20456;-71
2021/03/19 13:13:35;;;;;;;30.48;20.65;;;;;;;;;;8257801;28;20353;-71
2021/03/19 13:17:39;;;;;;;17.45;8.13;;;;;;;;;;8256616;28;20048;-71
2021/03/19 13:21:45;;;;;;;21.35;9.68;;;;;;;;;;8259348;28;20360;-71
2021/03/19 13:25:49;;;;;;;12.57;4.65;;;;;;;;;;8258017;28;20072;-72
2021/03/19 13:29:53;;;;;;;10.00;5.65;;;;;;;;;;8259883;28;20471;-71
2021/03/19 13:33:57;;;;;;;13.00;4.95;;;;;;;;;;8257873;28;20060;-71
2021/03/19 13:38:04;;;;;;;10.75;5.20;;;;;;;;;;8259855;28;20475;-71
2021/03/19 13:42:09;;;;;;;10.60;5.45;;;;;;;;;;8257710;28;20053;-71
2021/03/19 13:46:17;;;;;;;10.68;5.53;;;;;;;;;;8256391;28;20040;-71
2021/03/19 13:50:22;;;;;;;17.10;7.70;;;;;;;;;;8256414;28;20049;-71
2021/03/19 13:54:31;;;;;;;25.38;12.18;;;;;;;;;;8258933;28;20379;-71
2021/03/19 13:58:38;;;;;;;19.77;9.02;;;;;;;;;;8257759;28;20352;-71
2021/03/19 14:02:43;;;;;;;17.42;10.38;;;;;;;;;;8258516;28;20352;-70
2021/03/19 14:06:50;;;;;;;13.68;8.10;;;;;;;;;;8257401;28;20053;-70
2021/03/19 14:10:59;;;;;;;28.45;16.55;;;;;;;;;;8257878;28;20067;-71
2021/03/19 14:15:06;;;;;;;15.15;9.10;;;;;;;;;;8258545;28;20084;-71
2021/03/19 14:19:13;;;;;;;21.65;10.30;;;;;;;;;;8256487;28;20467;-70
2021/03/19 14:23:21;;;;;;;11.35;6.05;;;;;;;;;;8263785;28;20383;-71
2021/03/19 14:27:27;;;;;;;12.13;7.72;;;;;;;;;;8263026;28;20375;-70
2021/03/19 14:31:32;;;;;;;25.85;11.65;;;;;;;;;;8263470;28;20480;-70
2021/03/19 14:35:36;;;;;;;13.25;7.80;;;;;;;;;;8263407;28;20091;-70
2021/03/19 14:39:41;;;;;;;29.45;14.82;;;;;;;;;;8262734;28;20394;-71
2021/03/19 14:43:45;;;;;;;23.73;9.63;;;;;;;;;;8261806;28;20075;-70
2021/03/19 14:48:11;;;;;;;137.88;50.05;;;;;;;;;;8261435;28;20352;-70
2021/03/19 14:52:15;;;;;;;14.85;6.63;;;;;;;;;;8262565;28;20356;-70
2021/03/19 14:56:20;;;;;;;45.15;15.73;;;;;;;;;;8263525;28;20470;-71
2021/03/19 15:00:31;;;;;;;16.08;6.47;;;;;;;;;;8263451;28;20377;-70
2021/03/19 15:04:36;;;;;;;48.40;14.88;;;;;;;;;;8262925;28;20382;-71
2021/03/19 15:08:41;;;;;;;85.65;26.15;;;;;;;;;;8263909;28;20456;-71
2021/03/19 15:12:46;;;;;;;59.70;20.80;;;;;;;;;;8259820;28;20065;-71
2021/03/19 15:16:53;;;;;;;37.47;14.40;;;;;;;;;;8261389;28;20470;-71
2021/03/19 15:21:04;;;;;;;25.13;11.50;;;;;;;;;;8262607;28;20356;-70
2021/03/19 15:25:09;;;;;;;24.27;10.07;;;;;;;;;;8261883;28;20075;-70
2021/03/19 15:29:14;;;;;;;27.08;11.18;;;;;;;;;;8261297;28;20053;-70
2021/03/19 15:33:20;;;;;;;21.88;10.43;;;;;;;;;;8260700;28;20076;-71
2021/03/19 15:37:25;;;;;;;50.78;14.27;;;;;;;;;;8262304;28;20480;-71
2021/03/19 15:41:31;;;;;;;61.50;18.35;;;;;;;;;;8261120;28;20049;-71
2021/03/19 15:45:35;;;;;;;116.40;40.10;;;;;;;;;;8261095;28;20116;-70
2021/03/19 15:49:40;;;;;;;120.15;44.97;;;;;;;;;;8259296;28;20411;-70
2021/03/19 15:53:44;;;;;;;101.38;35.30;;;;;;;;;;8260202;28;20360;-71
2021/03/19 15:57:49;;;;;;;149.13;47.60;;;;;;;;;;8260511;28;20359;-71
2021/03/19 16:01:53;;;;;;;113.70;29.25;;;;;;;;;;8259922;28;20507;-71
2021/03/19 16:05:58;;;;;;;200.00;50.40;;;;;;;;;;8258982;28;20376;-70
2021/03/19 16:10:05;;;;;;;13.90;7.45;;;;;;;;;;8261418;28;20356;-70
2021/03/19 16:14:11;;;;;;;52.20;17.20;;;;;;;;;;8261132;28;20482;-70
2021/03/19 16:18:36;;;;;;;113.28;35.33;;;;;;;;;;8260147;28;20049;-70
2021/03/19 16:22:42;;;;;;;48.80;16.38;;;;;;;;;;8261322;28;20470;-70
2021/03/19 16:26:47;;;;;;;96.70;26.83;;;;;;;;;;8262686;28;20494;-70
2021/03/19 16:30:53;;;;;;;91.80;27.05;;;;;;;;;;8258371;28;20391;-71
2021/03/19 16:34:58;;;;;;;170.55;43.90;;;;;;;;;;8242276;28;20447;-70
2021/03/19 16:39:05;;;;;;;189.48;49.70;;;;;;;;;;8260794;28;20057;-70
2021/03/19 16:43:09;;;;;;;182.98;51.90;;;;;;;;;;8258779;28;20374;-69
2021/03/19 16:47:14;;;;;;;221.82;65.82;;;;;;;;;;8275052;28;20344;-70
2021/03/19 16:51:32;;;;;;;224.73;71.55;;;;;;;;;;8242274;28;20573;-69
2021/03/19 16:55:39;;;;;;;184.82;62.75;;;;;;;;;;8259607;28;20375;-70
2021/03/19 16:59:44;;;;;;;170.18;66.30;;;;;;;;;;8259068;28;20435;-71
2021/03/19 17:03:50;;;;;;;97.68;36.03;;;;;;;;;;8257993;28;20380;-71
2021/03/19 17:07:55;;;;;;;69.80;26.48;;;;;;;;;;8258995;28;20493;-71
2021/03/19 17:11:59;;;;;;;61.95;23.30;;;;;;;;;;8258443;28;20490;-71
2021/03/19 17:16:04;;;;;;;37.75;14.05;;;;;;;;;;8256544;28;20348;-71
2021/03/19 17:20:10;;;;;;;37.47;13.85;;;;;;;;;;8258653;28;20515;-70
2021/03/19 17:24:14;;;;;;;50.40;16.13;;;;;;;;;;8258894;28;20479;-70
2021/03/19 17:28:23;;;;;;;44.88;15.38;;;;;;;;;;8254589;28;20401;-71
2021/03/19 17:32:27;;;;;;;30.60;10.25;;;;;;;;;;8240203;28;20494;-70
2021/03/19 17:36:32;;;;;;;42.53;14.00;;;;;;;;;;8258015;28;20037;-70
2021/03/19 17:40:37;;;;;;;53.83;16.10;;;;;;;;;;8260811;28;20475;-69
2021/03/19 17:44:42;;;;;;;33.10;9.80;;;;;;;;;;8258697;28;20059;-69
2021/03/19 17:48:46;;;;;;;38.67;10.18;;;;;;;;;;8256783;28;20493;-69
2021/03/19 17:52:51;;;;;;;58.25;15.93;;;;;;;;;;8255879;28;20443;-70
2021/03/19 17:56:56;;;;;;;58.42;13.85;;;;;;;;;;8263443;28;20380;-69
2021/03/19 18:01:01;;;;;;;45.60;13.40;;;;;;;;;;8264928;28;20371;-69
2021/03/19 18:05:07;;;;;;;54.17;17.52;;;;;;;;;;8264478;28;20478;-69
2021/03/19 18:09:16;;;;;;;87.28;31.98;;;;;;;;;;8263837;28;20367;-69
2021/03/19 18:13:21;;;;;;;83.30;29.38;;;;;;;;;;8263788;28;20471;-69
2021/03/19 18:17:26;;;;;;;62.05;20.30;;;;;;;;;;8261954;28;20452;-69
2021/03/19 18:21:43;;;;;;;59.20;20.85;;;;;;;;;;8263439;28;20384;-68
2021/03/19 18:25:50;;;;;;;69.53;25.60;;;;;;;;;;8260814;28;20472;-69
2021/03/19 18:29:53;;;;;;;64.25;26.45;;;;;;;;;;8261584;28;20352;-69
2021/03/19 18:33:58;;;;;;;96.57;36.80;;;;;;;;;;8245207;28;20369;-68
2021/03/19 18:38:01;;;;;;;78.65;31.83;;;;;;;;;;8260912;28;20431;-69
2021/03/19 18:42:06;;;;;;;83.13;30.83;;;;;;;;;;8263944;28;20357;-70
2021/03/19 18:46:10;;;;;;;137.07;43.13;;;;;;;;;;8262172;28;20364;-70
2021/03/19 18:50:19;;;;;;;166.65;59.03;;;;;;;;;;8262363;28;20360;-69
2021/03/19 18:54:23;;;;;;;220.57;73.63;;;;;;;;;;8262908;28;20467;-68
2021/03/19 18:58:30;;;;;;;202.13;70.60;;;;;;;;;;8263619;28;20432;-70
2021/03/19 19:02:35;;;;;;;110.15;39.78;;;;;;;;;;8262172;28;20476;-71
2021/03/19 19:06:40;;;;;;;240.20;62.60;;;;;;;;;;8261133;28;20476;-69
2021/03/19 19:10:44;;;;;;;200.57;67.53;;;;;;;;;;8261276;28;20048;-69
2021/03/19 19:14:49;;;;;;;139.10;49.90;;;;;;;;;;8261189;28;20360;-69
2021/03/19 19:18:54;;;;;;;75.93;33.10;;;;;;;;;;8261496;28;20478;-69
2021/03/19 19:23:00;;;;;;;70.50;30.63;;;;;;;;;;8262515;28;20487;-69
2021/03/19 19:27:07;;;;;;;73.35;30.90;;;;;;;;;;8260415;28;20064;-71
2021/03/19 19:31:11;;;;;;;66.28;27.65;;;;;;;;;;8259999;28;20452;-70
2021/03/19 19:35:17;;;;;;;168.65;48.95;;;;;;;;;;8261140;28;20375;-69
2021/03/19 19:39:22;;;;;;;152.52;50.08;;;;;;;;;;8258204;28;20400;-70
2021/03/19 19:43:28;;;;;;;99.55;37.03;;;;;;;;;;8258666;28;20057;-70
2021/03/19 19:47:31;;;;;;;164.52;44.05;;;;;;;;;;8274506;28;20375;-70
2021/03/19 19:51:38;;;;;;;104.70;33.92;;;;;;;;;;8261005;28;20367;-70
2021/03/19 19:55:44;;;;;;;204.80;58.00;;;;;;;;;;8259551;28;20447;-70
2021/03/19 19:59:48;;;;;;;125.70;45.35;;;;;;;;;;8260049;28;20476;-69
2021/03/19 20:03:58;;;;;;;133.15;44.15;;;;;;;;;;8259591;28;20365;-69
2021/03/19 20:08:04;;;;;;;116.28;43.40;;;;;;;;;;8258161;28;20455;-70
2021/03/19 20:12:08;;;;;;;101.43;37.13;;;;;;;;;;8241078;28;20355;-69
2021/03/19 20:16:12;;;;;;;147.95;49.10;;;;;;;;;;8259298;28;20067;-71
2021/03/19 20:20:18;;;;;;;105.47;38.97;;;;;;;;;;8258324;28;20502;-69
2021/03/19 20:24:24;;;;;;;86.13;33.67;;;;;;;;;;8257961;28;20352;-69
2021/03/19 20:28:32;;;;;;;84.72;30.27;;;;;;;;;;8260059;28;20376;-69
2021/03/19 20:32:39;;;;;;;66.70;25.58;;;;;;;;;;8258221;28;20471;-68
2021/03/19 20:36:51;;;;;;;53.78;19.05;;;;;;;;;;8260219;28;20462;-69
2021/03/19 20:40:56;;;;;;;46.80;19.45;;;;;;;;;;8258364;28;20391;-70
2021/03/19 20:45:00;;;;;;;56.95;21.27;;;;;;;;;;8258509;28;20345;-69
2021/03/19 20:49:09;;;;;;;29.98;11.57;;;;;;;;;;8257722;28;20478;-69
2021/03/19 20:53:19;;;;;;;26.92;11.80;;;;;;;;;;8258723;28;20345;-69
2021/03/19 20:57:24;;;;;;;39.65;17.48;;;;;;;;;;8258189;28;20049;-69
2021/03/19 21:01:34;;;;;;;15.95;9.35;;;;;;;;;;8257216;28;20492;-69
2021/03/19 21:05:39;;;;;;;11.38;6.90;;;;;;;;;;8256956;28;20383;-69
2021/03/19 21:09:47;;;;;;;17.90;10.35;;;;;;;;;;8259499;28;20333;-69
2021/03/19 21:13:53;;;;;;;19.88;10.50;;;;;;;;;;8256900;28;20639;-70
2021/03/19 21:17:57;;;;;;;30.33;16.00;;;;;;;;;;8259196;28;20387;-70
2021/03/19 21:22:04;;;;;;;23.88;12.55;;;;;;;;;;8257206;28;20057;-68
2021/03/19 21:26:10;;;;;;;32.33;17.33;;;;;;;;;;8259018;28;20344;-69
2021/03/19 21:30:16;;;;;;;23.70;14.40;;;;;;;;;;8258532;28;20348;-69
2021/03/19 21:34:22;;;;;;;32.55;16.35;;;;;;;;;;8259869;28;20463;-69
2021/03/19 21:38:33;;;;;;;22.92;13.18;;;;;;;;;;8259846;28;20494;-69
2021/03/19 21:42:41;;;;;;;24.17;12.57;;;;;;;;;;8255030;28;20456;-69
2021/03/19 21:46:45;;;;;;;21.95;13.52;;;;;;;;;;8259089;28;20116;-69
2021/03/19 21:50:52;;;;;;;21.02;12.63;;;;;;;;;;8257948;28;20068;-69
2021/03/19 21:54:56;;;;;;;22.85;13.57;;;;;;;;;;8257502;28;20383;-71
2021/03/19 21:59:02;;;;;;;21.05;13.05;;;;;;;;;;8257380;28;20444;-69
2021/03/19 22:03:08;;;;;;;19.13;12.02;;;;;;;;;;8255639;28;20351;-68
2021/03/19 22:07:13;;;;;;;22.27;12.00;;;;;;;;;;8258008;28;20379;-69
2021/03/19 22:11:25;;;;;;;22.38;13.68;;;;;;;;;;8258589;28;20057;-69
2021/03/19 22:15:29;;;;;;;29.08;15.40;;;;;;;;;;8257154;28;20379;-69
2021/03/19 22:19:33;;;;;;;25.85;16.13;;;;;;;;;;8258055;28;20364;-69
2021/03/19 22:23:38;;;;;;;21.58;13.55;;;;;;;;;;8257312;28;20379;-69
2021/03/19 22:27:43;;;;;;;23.13;13.90;;;;;;;;;;8256796;28;20475;-69
2021/03/19 22:31:48;;;;;;;23.33;13.88;;;;;;;;;;8255974;28;20052;-69
2021/03/19 22:35:53;;;;;;;18.75;9.88;;;;;;;;;;8257647;28;20360;-69
2021/03/19 22:39:56;;;;;;;20.40;9.25;;;;;;;;;;8256782;28;20521;-69
2021/03/19 22:44:03;;;;;;;34.47;13.35;;;;;;;;;;8260918;28;20365;-69
2021/03/19 22:48:12;;;;;;;14.82;7.13;;;;;;;;;;8277628;28;20075;-69
2021/03/19 22:52:17;;;;;;;10.55;6.15;;;;;;;;;;8262284;28;20053;-69
2021/03/19 22:56:22;;;;;;;122.72;39.28;;;;;;;;;;8262462;28;20041;-69
2021/03/19 23:00:37;;;;;;;44.47;14.70;;;;;;;;;;8276702;28;20493;-69
2021/03/19 23:04:42;;;;;;;69.97;20.42;;;;;;;;;;8260631;28;20486;-69
2021/03/19 23:08:46;;;;;;;38.53;11.38;;;;;;;;;;8264061;28;20475;-69
2021/03/19 23:12:51;;;;;;;67.32;15.77;;;;;;;;;;8261803;28;20402;-69
2021/03/19 23:16:55;;;;;;;49.35;12.98;;;;;;;;;;8260676;28;20045;-69
2021/03/19 23:21:05;;;;;;;113.60;21.40;;;;;;;;;;8261771;28;20474;-71
2021/03/19 23:25:11;;;;;;;100.03;18.02;;;;;;;;;;8261709;28;20399;-69
2021/03/19 23:29:28;;;;;;;50.08;10.73;;;;;;;;;;8261210;28;20371;-69
2021/03/19 23:33:33;;;;;;;45.33;10.20;;;;;;;;;;8262150;28;20363;-68
2021/03/19 23:37:37;;;;;;;36.35;9.40;;;;;;;;;;8263004;28;20379;-69
2021/03/19 23:41:42;;;;;;;98.38;21.23;;;;;;;;;;8260060;28;20380;-69
2021/03/19 23:45:45;;;;;;;42.65;10.77;;;;;;;;;;8264027;28;20367;-68
2021/03/19 23:49:49;;;;;;;49.72;11.20;;;;;;;;;;8260149;28;20447;-69
2021/03/19 23:53:54;;;;;;;86.95;17.73;;;;;;;;;;8258704;28;20474;-68
2021/03/19 23:57:59;;;;;;;51.17;12.95;;;;;;;;;;8262832;28;20084;-70
